createdAt,value
2022-08-04T00:00:44.980Z,9.20
2022-08-04T00:05:59.420Z,10.55
2022-08-04T00:11:04.924Z,11.05
2022-08-04T00:16:10.164Z,11.52
2022-08-04T00:21:15.801Z,10.07
2022-08-04T00:26:21.114Z,10.02
2022-08-04T00:31:33.346Z,10.30
2022-08-04T00:36:47.998Z,10.45
2022-08-04T00:42:24.116Z,10.68
2022-08-04T00:47:45.093Z,10.90
2022-08-04T00:53:09.526Z,11.37
2022-08-04T00:58:28.179Z,10.77
2022-08-04T01:03:48.198Z,10.70
2022-08-04T01:09:02.590Z,10.30
2022-08-04T01:14:28.203Z,10.20
2022-08-04T01:20:04.182Z,12.93
2022-08-04T01:25:35.715Z,10.77
2022-08-04T01:30:47.977Z,11.65
2022-08-04T01:35:55.060Z,10.55
2022-08-04T01:41:02.932Z,10.80
2022-08-04T01:46:10.576Z,9.05
2022-08-04T01:51:14.113Z,9.98
2022-08-04T01:56:17.574Z,10.45
2022-08-04T02:01:22.609Z,9.40
2022-08-04T02:06:32.052Z,9.88
2022-08-04T02:11:35.078Z,10.07
2022-08-04T02:16:52.582Z,11.60
2022-08-04T02:22:02.273Z,11.27
2022-08-04T02:27:07.062Z,11.82
2022-08-04T02:32:15.763Z,10.60
2022-08-04T02:37:21.019Z,13.93
2022-08-04T02:42:24.221Z,10.55
2022-08-04T02:48:29.185Z,12.02
2022-08-04T02:52:55.803Z,12.10
2022-08-04T02:58:02.355Z,10.23
2022-08-04T03:03:20.512Z,13.20
2022-08-04T03:09:02.056Z,13.68
2022-08-04T03:19:55.820Z,13.18
2022-08-04T03:25:54.486Z,11.30
2022-08-04T03:31:29.129Z,11.43
2022-08-04T03:37:12.073Z,12.32
2022-08-04T03:42:45.687Z,11.27
2022-08-04T03:48:19.761Z,9.52
2022-08-04T03:53:36.974Z,10.88
2022-08-04T03:59:05.553Z,13.35
2022-08-04T04:04:46.415Z,14.73
2022-08-04T04:10:26.558Z,11.32
2022-08-04T04:15:58.429Z,15.52
2022-08-04T04:21:41.316Z,11.32
2022-08-04T04:26:59.933Z,9.98
2022-08-04T04:32:21.627Z,11.45
2022-08-04T04:42:50.379Z,10.38
2022-08-04T04:48:12.918Z,9.15
2022-08-04T04:53:24.686Z,8.68
2022-08-04T04:58:31.969Z,9.13
2022-08-04T05:03:49.892Z,9.25
2022-08-04T05:09:21.323Z,8.18
2022-08-04T05:14:34.419Z,12.07
2022-08-04T05:19:59.713Z,10.45
2022-08-04T05:25:09.078Z,8.05
2022-08-04T05:30:13.062Z,8.00
2022-08-04T05:35:37.444Z,13.75
2022-08-04T05:40:47.198Z,8.35
2022-08-04T05:45:52.810Z,7.78
2022-08-04T05:51:00.953Z,8.20
2022-08-04T05:56:07.116Z,8.95
2022-08-04T06:01:12.021Z,8.88
2022-08-04T06:06:19.526Z,8.15
2022-08-04T06:11:23.797Z,11.82
2022-08-04T06:16:35.042Z,6.68
2022-08-04T06:21:44.884Z,5.03
2022-08-04T06:26:49.955Z,6.65
2022-08-04T06:32:29.456Z,4.75
2022-08-04T06:37:42.387Z,5.28
2022-08-04T06:42:48.533Z,7.07
2022-08-04T06:47:52.152Z,5.03
2022-08-04T06:52:56.760Z,7.18
2022-08-04T06:58:03.448Z,7.93
2022-08-04T07:03:07.804Z,7.30
2022-08-04T07:08:12.698Z,7.70
2022-08-04T07:13:17.700Z,10.63
2022-08-04T07:18:20.628Z,5.82
2022-08-04T07:23:26.761Z,3.70
2022-08-04T07:28:30.975Z,3.67
2022-08-04T07:33:34.922Z,6.22
2022-08-04T07:38:46.494Z,3.97
2022-08-04T07:43:55.370Z,6.03
2022-08-04T07:48:59.981Z,7.75
2022-08-04T07:54:05.568Z,5.20
2022-08-04T07:59:09.944Z,6.55
2022-08-04T08:04:13.821Z,5.22
2022-08-04T08:09:21.697Z,6.72
2022-08-04T08:14:25.551Z,4.68
2022-08-04T08:19:29.141Z,5.28
2022-08-04T08:24:37.488Z,4.55
2022-08-04T08:29:41.673Z,4.63
2022-08-04T08:34:45.913Z,3.83
2022-08-04T08:39:58.503Z,2.50
2022-08-04T08:45:32.401Z,3.28
2022-08-04T08:51:17.070Z,2.33
2022-08-04T08:56:34.360Z,4.05
2022-08-04T09:01:52.869Z,3.28
2022-08-04T09:07:07.185Z,4.40
2022-08-04T09:12:17.945Z,2.63
2022-08-04T09:17:28.719Z,4.03
2022-08-04T09:36:37.698Z,6.25
2022-08-04T09:41:52.699Z,3.53
2022-08-04T09:47:09.390Z,3.20
2022-08-04T09:52:31.789Z,3.70
2022-08-04T09:57:52.255Z,5.72
2022-08-04T10:02:58.315Z,5.72
2022-08-04T10:08:20.618Z,5.93
2022-08-04T10:13:40.399Z,7.03
2022-08-04T10:18:51.379Z,3.72
2022-08-04T10:29:15.380Z,3.92
2022-08-04T10:34:22.248Z,4.18
2022-08-04T10:39:43.467Z,5.82
2022-08-04T10:44:58.792Z,2.72
2022-08-04T10:50:04.063Z,5.07
2022-08-04T10:55:13.481Z,4.78
2022-08-04T11:00:21.919Z,4.15
2022-08-04T11:05:30.833Z,2.85
2022-08-04T11:10:37.865Z,4.07
2022-08-04T11:15:50.552Z,2.80
2022-08-04T11:20:59.969Z,2.85
2022-08-04T11:26:10.434Z,4.13
2022-08-04T11:31:20.123Z,6.20
2022-08-04T11:36:34.761Z,2.92
2022-08-04T11:41:47.152Z,3.58
2022-08-04T11:46:57.578Z,3.80
2022-08-04T11:52:02.793Z,4.47
2022-08-04T11:57:07.005Z,2.42
2022-08-04T12:02:42.269Z,3.70
2022-08-04T12:07:55.896Z,5.07
2022-08-04T12:13:19.320Z,2.47
2022-08-04T12:18:30.219Z,5.40
2022-08-04T12:23:39.205Z,2.80
2022-08-04T12:34:17.760Z,3.00
2022-08-04T12:39:22.052Z,2.65
2022-08-04T12:44:37.081Z,2.63
2022-08-04T12:50:00.184Z,2.22
2022-08-04T12:55:06.333Z,1.73
2022-08-04T13:00:11.172Z,3.15
2022-08-04T13:05:17.439Z,1.83
2022-08-04T13:10:30.519Z,4.80
2022-08-04T13:15:47.568Z,2.22
2022-08-04T13:21:20.452Z,3.25
2022-08-04T13:26:43.389Z,2.97
2022-08-04T13:31:52.588Z,3.05
2022-08-04T13:36:59.040Z,5.47
2022-08-04T13:42:05.373Z,1.95
2022-08-04T13:47:14.771Z,2.85
2022-08-04T13:52:25.444Z,3.80
2022-08-04T13:57:31.966Z,2.90
2022-08-04T14:02:42.779Z,1.88
2022-08-04T14:12:52.899Z,3.97
2022-08-04T14:18:17.920Z,1.85
2022-08-04T14:23:23.160Z,1.95
2022-08-04T14:29:27.889Z,2.10
2022-08-04T14:34:03.874Z,5.40
2022-08-04T14:39:12.830Z,2.40
2022-08-04T14:44:16.506Z,4.57
2022-08-04T14:49:19.727Z,3.17
2022-08-04T14:54:30.387Z,4.32
2022-08-04T14:59:41.919Z,3.80
2022-08-04T15:06:00.857Z,1.73
2022-08-04T15:10:29.411Z,3.88
2022-08-04T15:15:37.582Z,3.60
2022-08-04T15:20:42.787Z,3.22
2022-08-04T15:25:52.008Z,4.20
2022-08-04T15:30:56.397Z,3.47
2022-08-04T15:36:13.541Z,2.88
2022-08-04T15:41:24.797Z,1.85
2022-08-04T15:47:10.742Z,1.60
2022-08-04T15:52:16.938Z,1.88
2022-08-04T15:57:54.387Z,3.85
2022-08-04T16:02:59.347Z,3.13
2022-08-04T16:08:11.024Z,2.88
2022-08-04T16:13:15.348Z,2.40
2022-08-04T16:18:39.014Z,2.22
2022-08-04T16:24:17.984Z,3.20
2022-08-04T16:29:42.657Z,2.78
2022-08-04T16:35:04.705Z,1.40
2022-08-04T16:40:39.178Z,1.83
2022-08-04T16:45:51.123Z,4.38
2022-08-04T16:51:05.095Z,2.40
2022-08-04T16:56:10.542Z,3.00
2022-08-04T17:01:22.010Z,5.22
2022-08-04T17:06:40.554Z,4.82
2022-08-04T17:11:44.632Z,1.65
2022-08-04T17:16:47.603Z,7.30
2022-08-04T17:21:53.077Z,5.93
2022-08-04T17:26:58.052Z,1.90
2022-08-04T17:32:01.954Z,3.70
2022-08-04T17:37:36.586Z,5.88
2022-08-04T17:42:30.269Z,3.55
2022-08-04T17:47:38.009Z,4.43
2022-08-04T17:58:22.173Z,5.63
2022-08-04T18:03:29.936Z,5.95
2022-08-04T18:08:41.279Z,6.38
2022-08-04T18:13:54.332Z,4.63
2022-08-04T18:19:09.736Z,11.13
2022-08-04T18:24:15.267Z,5.72
2022-08-04T18:34:54.510Z,8.18
2022-08-04T18:40:09.550Z,7.22
2022-08-04T18:45:24.505Z,5.15
2022-08-04T18:51:11.117Z,6.47
2022-08-04T18:56:02.392Z,6.13
2022-08-04T19:01:13.637Z,7.28
2022-08-04T19:06:16.983Z,4.38
2022-08-04T19:11:38.427Z,5.55
2022-08-04T19:16:54.312Z,8.90
2022-08-04T19:22:02.549Z,6.63
2022-08-04T19:27:12.127Z,7.90
2022-08-04T19:32:16.414Z,6.50
2022-08-04T19:37:56.111Z,7.28
2022-08-04T19:42:44.327Z,10.45
2022-08-04T19:48:17.031Z,12.48
2022-08-04T19:53:20.013Z,11.05
2022-08-04T19:58:26.312Z,10.25
2022-08-04T20:04:10.384Z,12.77
2022-08-04T20:08:52.487Z,9.98
2022-08-04T20:13:59.517Z,13.35
2022-08-04T20:19:08.082Z,8.35
2022-08-04T20:24:37.751Z,5.63
2022-08-04T20:29:43.306Z,6.22
2022-08-04T20:34:49.776Z,5.68
2022-08-04T20:39:55.364Z,8.30
2022-08-04T20:44:59.942Z,8.07
2022-08-04T20:50:08.837Z,6.65
2022-08-04T20:55:12.515Z,6.72
2022-08-04T21:00:26.308Z,6.18
2022-08-04T21:05:33.082Z,5.65
2022-08-04T21:10:37.439Z,6.93
2022-08-04T21:15:58.842Z,10.20
2022-08-04T21:21:02.801Z,8.95
2022-08-04T21:26:06.460Z,8.18
2022-08-04T21:31:22.203Z,8.90
2022-08-04T21:41:31.833Z,10.43
2022-08-04T21:46:44.561Z,9.18
2022-08-04T21:51:57.856Z,12.52
2022-08-04T21:57:04.519Z,10.90
2022-08-04T22:02:10.921Z,12.70
2022-08-04T22:07:16.452Z,13.90
2022-08-04T22:12:26.330Z,12.75
2022-08-04T22:17:35.104Z,13.80
2022-08-04T22:22:40.210Z,15.85
2022-08-04T22:28:01.071Z,12.63
2022-08-04T22:33:08.919Z,13.00
2022-08-04T22:38:24.282Z,11.23
2022-08-04T22:43:34.536Z,9.35
2022-08-04T22:48:43.468Z,8.35
2022-08-04T22:53:49.210Z,8.30
2022-08-04T22:58:52.377Z,9.07
2022-08-04T23:03:58.812Z,10.90
2022-08-04T23:09:02.261Z,12.73
2022-08-04T23:14:08.395Z,8.35
2022-08-04T23:19:15.574Z,9.80
2022-08-04T23:24:18.935Z,11.27
2022-08-04T23:29:22.001Z,11.23
2022-08-04T23:34:27.016Z,9.98
2022-08-04T23:40:04.243Z,10.10
2022-08-04T23:44:55.569Z,10.85
2022-08-04T23:50:00.558Z,8.48
2022-08-04T23:55:03.756Z,11.55
